sensor_id;sensor_type;location;lat;lon;timestamp;pressure;altitude;pressure_sealevel;temperature;humidity
60228;BME280;46091;46.512;6.626;2023-03-04T07:52:14;97291.09;;;7.48;63.90
60228;BME280;46091;46.512;6.626;2023-03-04T07:54:17;97287.19;;;7.77;63.32
60228;BME280;46091;46.512;6.626;2023-03-04T07:56:21;97292.63;;;8.00;63.24
60228;BME280;46091;46.512;6.626;2023-03-04T07:58:25;97292.47;;;8.17;62.69
60228;BME280;46091;46.512;6.626;2023-03-04T08:00:28;97291.78;;;8.32;62.48
60228;BME280;46091;46.512;6.626;2023-03-04T08:02:31;97295.75;;;8.44;62.25
60228;BME280;46091;46.512;6.626;2023-03-04T08:04:34;97289.47;;;8.53;62.22
60228;BME280;46091;46.512;6.626;2023-03-04T08:06:39;97294.56;;;8.63;62.14
60228;BME280;46091;46.512;6.626;2023-03-04T08:08:43;97288.44;;;8.70;61.83
60228;BME280;46091;46.512;6.626;2023-03-04T08:10:46;97306.53;;;8.82;61.83
60228;BME280;46091;46.512;6.626;2023-03-04T08:12:49;97304.84;;;8.89;61.82
60228;BME280;46091;46.512;6.626;2023-03-04T08:14:52;97295.94;;;8.90;61.34
60228;BME280;46091;46.512;6.626;2023-03-04T08:16:55;97308.63;;;8.94;61.71
60228;BME280;46091;46.512;6.626;2023-03-04T08:19:03;97301.03;;;8.99;61.72
60228;BME280;46091;46.512;6.626;2023-03-04T08:21:08;97300.50;;;9.04;61.57
60228;BME280;46091;46.512;6.626;2023-03-04T08:23:11;97305.28;;;9.09;61.32
60228;BME280;46091;46.512;6.626;2023-03-04T08:25:15;97300.47;;;9.12;61.35
60228;BME280;46091;46.512;6.626;2023-03-04T08:27:19;97304.41;;;9.16;61.14
60228;BME280;46091;46.512;6.626;2023-03-04T08:29:22;97304.25;;;9.18;60.99
60228;BME280;46091;46.512;6.626;2023-03-04T08:31:26;97310.38;;;9.18;60.76
60228;BME280;46091;46.512;6.626;2023-03-04T08:33:30;97312.81;;;9.20;61.16
60228;BME280;46091;46.512;6.626;2023-03-04T08:35:38;97309.19;;;9.21;60.93
60228;BME280;46091;46.512;6.626;2023-03-04T08:37:41;97308.84;;;9.24;60.65
60228;BME280;46091;46.512;6.626;2023-03-04T08:39:45;97315.28;;;9.21;60.56
60228;BME280;46091;46.512;6.626;2023-03-04T08:41:49;97316.47;;;9.19;60.58
60228;BME280;46091;46.512;6.626;2023-03-04T08:43:52;97315.63;;;9.18;60.80
60228;BME280;46091;46.512;6.626;2023-03-04T08:45:55;97309.38;;;9.19;60.35
60228;BME280;46091;46.512;6.626;2023-03-04T08:47:59;97315.94;;;9.23;60.59
60228;BME280;46091;46.512;6.626;2023-03-04T08:50:02;97314.13;;;9.24;60.04
60228;BME280;46091;46.512;6.626;2023-03-04T08:52:05;97313.75;;;9.27;60.14
60228;BME280;46091;46.512;6.626;2023-03-04T08:54:08;97304.03;;;9.27;60.07
60228;BME280;46091;46.512;6.626;2023-03-04T08:56:12;97312.28;;;9.24;60.23
60228;BME280;46091;46.512;6.626;2023-03-04T08:58:16;97314.94;;;9.24;60.01
60228;BME280;46091;46.512;6.626;2023-03-04T09:00:19;97315.59;;;9.26;59.83
60228;BME280;46091;46.512;6.626;2023-03-04T09:02:22;97310.00;;;9.21;59.65
60228;BME280;46091;46.512;6.626;2023-03-04T09:04:25;97309.19;;;9.21;59.82
60228;BME280;46091;46.512;6.626;2023-03-04T09:06:28;97310.00;;;9.21;59.76
60228;BME280;46091;46.512;6.626;2023-03-04T09:08:31;97317.75;;;9.23;59.69
60228;BME280;46091;46.512;6.626;2023-03-04T09:10:34;97320.38;;;9.23;59.35
60228;BME280;46091;46.512;6.626;2023-03-04T09:12:37;97322.22;;;9.22;59.52
60228;BME280;46091;46.512;6.626;2023-03-04T09:14:41;97314.47;;;9.21;59.27
60228;BME280;46091;46.512;6.626;2023-03-04T09:16:44;97316.94;;;9.22;59.31
60228;BME280;46091;46.512;6.626;2023-03-04T09:18:47;97321.03;;;9.25;58.95
60228;BME280;46091;46.512;6.626;2023-03-04T09:20:50;97313.47;;;9.22;59.31
60228;BME280;46091;46.512;6.626;2023-03-04T09:22:53;97318.41;;;9.25;58.80
60228;BME280;46091;46.512;6.626;2023-03-04T09:24:56;97319.22;;;9.25;58.75
60228;BME280;46091;46.512;6.626;2023-03-04T09:26:59;97323.50;;;9.26;58.90
60228;BME280;46091;46.512;6.626;2023-03-04T09:29:02;97320.53;;;9.29;58.64
60228;BME280;46091;46.512;6.626;2023-03-04T09:31:11;97312.63;;;9.29;58.77
60228;BME280;46091;46.512;6.626;2023-03-04T09:33:15;97314.72;;;9.34;58.46
60228;BME280;46091;46.512;6.626;2023-03-04T09:35:18;97311.09;;;9.35;58.47
60228;BME280;46091;46.512;6.626;2023-03-04T09:37:21;97316.69;;;9.40;58.19
60228;BME280;46091;46.512;6.626;2023-03-04T09:39:24;97309.06;;;9.45;58.32
60228;BME280;46091;46.512;6.626;2023-03-04T09:41:34;97313.66;;;9.51;58.08
60228;BME280;46091;46.512;6.626;2023-03-04T09:43:38;97305.38;;;9.54;57.90
60228;BME280;46091;46.512;6.626;2023-03-04T09:45:44;97310.13;;;9.59;58.08
60228;BME280;46091;46.512;6.626;2023-03-04T09:47:52;97298.56;;;9.60;57.74
60228;BME280;46091;46.512;6.626;2023-03-04T09:49:58;97300.22;;;9.61;57.62
60228;BME280;46091;46.512;6.626;2023-03-04T09:52:09;97312.09;;;9.65;57.86
60228;BME280;46091;46.512;6.626;2023-03-04T09:54:20;97303.34;;;9.65;57.37
60228;BME280;46091;46.512;6.626;2023-03-04T09:56:27;97294.63;;;9.64;57.68
60228;BME280;46091;46.512;6.626;2023-03-04T09:58:38;97304.00;;;9.67;57.43
60228;BME280;46091;46.512;6.626;2023-03-04T10:00:49;97301.00;;;9.70;57.12
60228;BME280;46091;46.512;6.626;2023-03-04T10:03:13;97301.19;;;9.68;57.37
60228;BME280;46091;46.512;6.626;2023-03-04T10:05:19;97300.19;;;9.69;57.07
60228;BME280;46091;46.512;6.626;2023-03-04T10:07:26;97301.19;;;9.68;57.11
60228;BME280;46091;46.512;6.626;2023-03-04T10:09:41;97295.06;;;9.68;56.90
60228;BME280;46091;46.512;6.626;2023-03-04T10:11:47;97298.91;;;9.65;56.98
60228;BME280;46091;46.512;6.626;2023-03-04T10:14:02;97286.69;;;9.64;56.72
60228;BME280;46091;46.512;6.626;2023-03-04T10:16:09;97289.16;;;9.66;56.74
60228;BME280;46091;46.512;6.626;2023-03-04T10:18:18;97292.63;;;9.66;56.60
60228;BME280;46091;46.512;6.626;2023-03-04T10:20:25;97283.38;;;9.62;56.61
60228;BME280;46091;46.512;6.626;2023-03-04T10:22:34;97285.06;;;9.63;56.85
60228;BME280;46091;46.512;6.626;2023-03-04T10:24:37;97280.59;;;9.63;56.40
60228;BME280;46091;46.512;6.626;2023-03-04T10:26:41;97275.94;;;9.66;56.61
60228;BME280;46091;46.512;6.626;2023-03-04T10:28:46;97273.13;;;9.67;56.56
60228;BME280;46091;46.512;6.626;2023-03-04T10:30:52;97277.69;;;9.73;56.31
60228;BME280;46091;46.512;6.626;2023-03-04T10:32:58;97275.72;;;9.75;56.31
60228;BME280;46091;46.512;6.626;2023-03-04T10:35:05;97267.50;;;9.70;56.23
60228;BME280;46091;46.512;6.626;2023-03-04T10:37:09;97266.31;;;9.73;56.15
60228;BME280;46091;46.512;6.626;2023-03-04T10:39:17;97265.97;;;9.76;56.47
60228;BME280;46091;46.512;6.626;2023-03-04T10:41:22;97261.53;;;9.76;56.23
60228;BME280;46091;46.512;6.626;2023-03-04T10:43:26;97261.16;;;9.79;56.37
60228;BME280;46091;46.512;6.626;2023-03-04T10:45:30;97262.81;;;9.80;56.40
60228;BME280;46091;46.512;6.626;2023-03-04T10:47:35;97263.44;;;9.82;56.04
60228;BME280;46091;46.512;6.626;2023-03-04T10:49:49;97255.53;;;9.82;56.06
60228;BME280;46091;46.512;6.626;2023-03-04T10:52:00;97253.53;;;9.84;55.93
60228;BME280;46091;46.512;6.626;2023-03-04T10:54:07;97256.81;;;9.86;55.86
60228;BME280;46091;46.512;6.626;2023-03-04T10:56:33;97251.69;;;9.85;55.60
60228;BME280;46091;46.512;6.626;2023-03-04T10:58:36;97256.00;;;9.86;55.78
60228;BME280;46091;46.512;6.626;2023-03-04T11:00:40;97254.81;;;9.88;55.82
60228;BME280;46091;46.512;6.626;2023-03-04T11:02:45;97254.81;;;9.88;55.86
60228;BME280;46091;46.512;6.626;2023-03-04T11:04:53;97246.53;;;9.91;55.72
60228;BME280;46091;46.512;6.626;2023-03-04T11:06:58;97241.91;;;9.93;55.69
60228;BME280;46091;46.512;6.626;2023-03-04T11:09:01;97234.97;;;9.92;55.35
60228;BME280;46091;46.512;6.626;2023-03-04T11:11:20;97236.16;;;9.90;55.36
60228;BME280;46091;46.512;6.626;2023-03-04T11:13:25;97240.25;;;9.92;55.64
60228;BME280;46091;46.512;6.626;2023-03-04T11:15:29;97237.09;;;9.97;55.40
60228;BME280;46091;46.512;6.626;2023-03-04T11:17:42;97240.38;;;9.99;55.25
60228;BME280;46091;46.512;6.626;2023-03-04T11:19:52;97237.56;;;10.01;55.30
60228;BME280;46091;46.512;6.626;2023-03-04T11:21:57;97235.56;;;10.03;55.38
60228;BME280;46091;46.512;6.626;2023-03-04T11:24:04;97231.72;;;10.05;55.03
60228;BME280;46091;46.512;6.626;2023-03-04T11:26:30;97226.09;;;10.08;55.15
60228;BME280;46091;46.512;6.626;2023-03-04T11:28:41;97227.19;;;10.14;55.04
60228;BME280;46091;46.512;6.626;2023-03-04T11:30:49;97226.50;;;10.20;54.89
60228;BME280;46091;46.512;6.626;2023-03-04T11:32:56;97225.34;;;10.23;54.89
60228;BME280;46091;46.512;6.626;2023-03-04T11:35:11;97223.78;;;10.28;54.72
60228;BME280;46091;46.512;6.626;2023-03-04T11:37:23;97220.78;;;10.31;54.64
60228;BME280;46091;46.512;6.626;2023-03-04T11:39:33;97219.88;;;10.24;54.74
60228;BME280;46091;46.512;6.626;2023-03-04T11:41:40;97219.03;;;10.24;54.82
60228;BME280;46091;46.512;6.626;2023-03-04T11:43:46;97213.28;;;10.20;54.91
60228;BME280;46091;46.512;6.626;2023-03-04T11:48:34;97210.97;;;10.17;54.75
60228;BME280;46091;46.512;6.626;2023-03-04T11:50:45;97204.88;;;10.16;54.83
60228;BME280;46091;46.512;6.626;2023-03-04T11:53:38;97201.38;;;10.24;54.48
60228;BME280;46091;46.512;6.626;2023-03-04T11:55:45;97206.28;;;10.27;54.64
60228;BME280;46091;46.512;6.626;2023-03-04T11:57:59;97193.38;;;10.32;54.43
60228;BME280;46091;46.512;6.626;2023-03-04T12:00:28;97203.94;;;10.32;54.23
60228;BME280;46091;46.512;6.626;2023-03-04T12:02:45;97188.72;;;10.34;54.56
60228;BME280;46091;46.512;6.626;2023-03-04T12:07:42;97180.69;;;10.42;54.29
60228;BME280;46091;46.512;6.626;2023-03-04T12:09:59;97182.97;;;10.45;54.26
60228;BME280;46091;46.512;6.626;2023-03-04T12:12:21;97182.59;;;10.48;54.02
60228;BME280;46091;46.512;6.626;2023-03-04T12:14:29;97170.00;;;10.50;54.00
60228;BME280;46091;46.512;6.626;2023-03-04T12:17:17;97167.66;;;10.56;53.86
60228;BME280;46091;46.512;6.626;2023-03-04T12:19:29;97157.09;;;10.56;53.87
60228;BME280;46091;46.512;6.626;2023-03-04T12:21:53;97148.78;;;10.59;53.77
60228;BME280;46091;46.512;6.626;2023-03-04T12:24:17;97149.03;;;10.64;53.71
60228;BME280;46091;46.512;6.626;2023-03-04T12:26:33;97152.34;;;10.66;53.66
60228;BME280;46091;46.512;6.626;2023-03-04T12:28:50;97151.13;;;10.68;53.75
60228;BME280;46091;46.512;6.626;2023-03-04T12:31:10;97144.28;;;10.74;53.62
60228;BME280;46091;46.512;6.626;2023-03-04T12:33:27;97136.63;;;10.79;53.23
60228;BME280;46091;46.512;6.626;2023-03-04T12:35:36;97136.63;;;10.79;53.27
60228;BME280;46091;46.512;6.626;2023-03-04T12:37:56;97122.78;;;10.77;53.39
60228;BME280;46091;46.512;6.626;2023-03-04T12:40:21;97129.88;;;10.76;53.16
60228;BME280;46091;46.512;6.626;2023-03-04T12:42:32;97115.19;;;10.74;53.38
60228;BME280;46091;46.512;6.626;2023-03-04T12:44:42;97121.47;;;10.73;53.57
60228;BME280;46091;46.512;6.626;2023-03-04T12:47:05;97122.50;;;10.72;53.41
60228;BME280;46091;46.512;6.626;2023-03-04T12:49:24;97116.00;;;10.74;53.28
60228;BME280;46091;46.512;6.626;2023-03-04T12:51:31;97113.19;;;10.76;53.50
60228;BME280;46091;46.512;6.626;2023-03-04T12:53:42;97111.38;;;10.76;53.12
60228;BME280;46091;46.512;6.626;2023-03-04T12:55:48;97098.31;;;10.75;53.29
60228;BME280;46091;46.512;6.626;2023-03-04T12:57:54;97095.66;;;10.75;52.99
60228;BME280;46091;46.512;6.626;2023-03-04T13:00:07;97098.31;;;10.75;53.35
60228;BME280;46091;46.512;6.626;2023-03-04T13:02:28;97090.38;;;10.75;52.95
60228;BME280;46091;46.512;6.626;2023-03-04T13:04:43;97089.41;;;10.76;53.13
60228;BME280;46091;46.512;6.626;2023-03-04T13:07:02;97085.28;;;10.73;53.33
60228;BME280;46091;46.512;6.626;2023-03-04T13:09:18;97077.34;;;10.73;52.92
60228;BME280;46091;46.512;6.626;2023-03-04T13:11:53;97076.19;;;10.76;53.10
60228;BME280;46091;46.512;6.626;2023-03-04T13:14:04;97079.25;;;10.79;52.89
60228;BME280;46091;46.512;6.626;2023-03-04T13:16:28;97073.97;;;10.79;52.96
60228;BME280;46091;46.512;6.626;2023-03-04T13:18:34;97070.75;;;10.84;52.82
60228;BME280;46091;46.512;6.626;2023-03-04T13:20:39;97067.28;;;10.84;52.93
60228;BME280;46091;46.512;6.626;2023-03-04T13:22:45;97056.50;;;10.85;52.43
60228;BME280;46091;46.512;6.626;2023-03-04T13:24:49;97058.16;;;10.86;52.71
60228;BME280;46091;46.512;6.626;2023-03-04T13:26:52;97057.13;;;10.87;52.37
60228;BME280;46091;46.512;6.626;2023-03-04T13:29:30;97048.84;;;10.90;52.40
60228;BME280;46091;46.512;6.626;2023-03-04T13:31:57;97050.28;;;10.93;52.63
60228;BME280;46091;46.512;6.626;2023-03-04T13:34:03;97058.66;;;10.96;52.12
60228;BME280;46091;46.512;6.626;2023-03-04T13:36:26;97046.44;;;10.95;52.28
60228;BME280;46091;46.512;6.626;2023-03-04T13:38:33;97049.91;;;10.96;52.44
60228;BME280;46091;46.512;6.626;2023-03-04T13:40:38;97053.00;;;10.99;52.23
60228;BME280;46091;46.512;6.626;2023-03-04T13:42:41;97048.53;;;11.00;52.51
60228;BME280;46091;46.512;6.626;2023-03-04T13:44:59;97045.91;;;11.00;52.21
60228;BME280;46091;46.512;6.626;2023-03-04T13:47:08;97048.34;;;11.01;52.22
60228;BME280;46091;46.512;6.626;2023-03-04T13:49:19;97047.72;;;10.99;52.39
60228;BME280;46091;46.512;6.626;2023-03-04T13:51:25;97045.06;;;10.99;52.51
60228;BME280;46091;46.512;6.626;2023-03-04T13:53:39;97036.94;;;11.01;52.05
60228;BME280;46091;46.512;6.626;2023-03-04T13:55:42;97042.03;;;11.02;52.02
60228;BME280;46091;46.512;6.626;2023-03-04T13:57:48;97046.94;;;11.05;52.14
60228;BME280;46091;46.512;6.626;2023-03-04T13:59:54;97045.75;;;11.08;52.08
60228;BME280;46091;46.512;6.626;2023-03-04T14:02:10;97040.91;;;11.12;51.78
60228;BME280;46091;46.512;6.626;2023-03-04T14:04:18;97033.16;;;11.10;51.88
60228;BME280;46091;46.512;6.626;2023-03-04T14:06:23;97034.34;;;11.07;51.85
60228;BME280;46091;46.512;6.626;2023-03-04T14:08:26;97034.97;;;11.09;51.75
60228;BME280;46091;46.512;6.626;2023-03-04T14:10:28;97040.09;;;11.11;52.11
60228;BME280;46091;46.512;6.626;2023-03-04T14:12:33;97027.69;;;11.12;51.63
60228;BME280;46091;46.512;6.626;2023-03-04T14:14:41;97030.31;;;11.12;51.74
60228;BME280;46091;46.512;6.626;2023-03-04T14:16:50;97028.50;;;11.12;51.64
60228;BME280;46091;46.512;6.626;2023-03-04T14:19:01;97038.25;;;11.12;51.82
60228;BME280;46091;46.512;6.626;2023-03-04T14:21:04;97028.69;;;11.11;51.81
60228;BME280;46091;46.512;6.626;2023-03-04T14:23:23;97021.38;;;11.13;52.06
60228;BME280;46091;46.512;6.626;2023-03-04T14:25:27;97026.28;;;11.16;51.93
60228;BME280;46091;46.512;6.626;2023-03-04T14:27:32;97019.78;;;11.18;52.02
60228;BME280;46091;46.512;6.626;2023-03-04T14:29:36;97020.59;;;11.19;51.50
60228;BME280;46091;46.512;6.626;2023-03-04T14:31:39;97020.25;;;11.22;51.68
60228;BME280;46091;46.512;6.626;2023-03-04T14:33:47;97013.94;;;11.23;51.70
60228;BME280;46091;46.512;6.626;2023-03-04T14:35:53;97006.00;;;11.23;51.52
60228;BME280;46091;46.512;6.626;2023-03-04T14:37:59;97005.59;;;11.26;51.70
60228;BME280;46091;46.512;6.626;2023-03-04T14:40:03;97009.88;;;11.27;51.49
60228;BME280;46091;46.512;6.626;2023-03-04T14:42:09;97003.56;;;11.28;51.46
60228;BME280;46091;46.512;6.626;2023-03-04T14:44:23;97008.88;;;11.28;51.31
60228;BME280;46091;46.512;6.626;2023-03-04T14:46:30;97000.94;;;11.28;51.36
60228;BME280;46091;46.512;6.626;2023-03-04T14:48:34;97005.22;;;11.29;51.35
60228;BME280;46091;46.512;6.626;2023-03-04T14:50:46;96991.97;;;11.29;51.40
60228;BME280;46091;46.512;6.626;2023-03-04T14:53:08;96996.25;;;11.30;51.36
60228;BME280;46091;46.512;6.626;2023-03-04T14:55:18;96995.25;;;11.31;51.14
60228;BME280;46091;46.512;6.626;2023-03-04T14:57:23;96995.91;;;11.33;50.94
60228;BME280;46091;46.512;6.626;2023-03-04T14:59:29;96989.38;;;11.35;51.22
60228;BME280;46091;46.512;6.626;2023-03-04T15:01:33;96986.53;;;11.37;51.10
60228;BME280;46091;46.512;6.626;2023-03-04T15:03:37;96986.34;;;11.38;50.93
60228;BME280;46091;46.512;6.626;2023-03-04T15:05:40;96989.63;;;11.41;50.72
60228;BME280;46091;46.512;6.626;2023-03-04T15:07:50;96992.25;;;11.41;51.04
60228;BME280;46091;46.512;6.626;2023-03-04T15:09:54;96981.88;;;11.39;50.97
60228;BME280;46091;46.512;6.626;2023-03-04T15:12:00;96984.13;;;11.42;50.76
60228;BME280;46091;46.512;6.626;2023-03-04T15:14:04;96981.28;;;11.44;50.75
60228;BME280;46091;46.512;6.626;2023-03-04T15:16:11;96989.06;;;11.45;50.75
60228;BME280;46091;46.512;6.626;2023-03-04T15:18:21;96985.59;;;11.45;50.79
60228;BME280;46091;46.512;6.626;2023-03-04T15:20:27;96973.53;;;11.42;50.52
60228;BME280;46091;46.512;6.626;2023-03-04T15:22:31;96976.38;;;11.41;50.64
60228;BME280;46091;46.512;6.626;2023-03-04T15:24:36;96972.28;;;11.38;50.71
60228;BME280;46091;46.512;6.626;2023-03-04T15:26:40;96979.22;;;11.39;50.80
60228;BME280;46091;46.512;6.626;2023-03-04T15:28:45;96970.28;;;11.40;50.87
60228;BME280;46091;46.512;6.626;2023-03-04T15:30:48;96966.59;;;11.41;50.79
60228;BME280;46091;46.512;6.626;2023-03-04T15:32:51;96969.44;;;11.40;50.60
60228;BME280;46091;46.512;6.626;2023-03-04T15:34:54;96971.28;;;11.39;50.99
60228;BME280;46091;46.512;6.626;2023-03-04T15:36:58;96969.06;;;11.43;50.45
60228;BME280;46091;46.512;6.626;2023-03-04T15:39:01;96963.59;;;11.44;50.60
60228;BME280;46091;46.512;6.626;2023-03-04T15:41:05;96968.50;;;11.47;50.33
60228;BME280;46091;46.512;6.626;2023-03-04T15:43:11;96963.41;;;11.46;50.62
60228;BME280;46091;46.512;6.626;2023-03-04T15:45:20;96969.50;;;11.46;50.56
60228;BME280;46091;46.512;6.626;2023-03-04T15:47:23;96972.78;;;11.48;50.54
60228;BME280;46091;46.512;6.626;2023-03-04T15:49:26;96966.66;;;11.48;50.25
60228;BME280;46091;46.512;6.626;2023-03-04T15:51:30;96965.66;;;11.49;50.35
60228;BME280;46091;46.512;6.626;2023-03-04T15:53:35;96959.53;;;11.48;50.28
60228;BME280;46091;46.512;6.626;2023-03-04T15:55:42;96960.56;;;11.47;49.95
60228;BME280;46091;46.512;6.626;2023-03-04T15:57:52;96962.38;;;11.47;50.19
60228;BME280;46091;46.512;6.626;2023-03-04T15:59:56;96955.25;;;11.47;50.05
60228;BME280;46091;46.512;6.626;2023-03-04T16:01:59;96949.75;;;11.49;49.97
60228;BME280;46091;46.512;6.626;2023-03-04T16:04:02;96958.72;;;11.48;50.00
60228;BME280;46091;46.512;6.626;2023-03-04T16:06:08;96949.75;;;11.49;50.29
60228;BME280;46091;46.512;6.626;2023-03-04T16:08:13;96957.50;;;11.50;50.11
60228;BME280;46091;46.512;6.626;2023-03-04T16:10:20;96958.53;;;11.49;49.72
60228;BME280;46091;46.512;6.626;2023-03-04T16:12:25;96960.16;;;11.50;49.84
60228;BME280;46091;46.512;6.626;2023-03-04T16:14:30;96964.44;;;11.51;49.92
60228;BME280;46091;46.512;6.626;2023-03-04T16:16:33;96953.84;;;11.51;49.68
60228;BME280;46091;46.512;6.626;2023-03-04T16:18:36;96957.94;;;11.54;49.44
60228;BME280;46091;46.512;6.626;2023-03-04T16:20:42;96963.22;;;11.54;49.59
60228;BME280;46091;46.512;6.626;2023-03-04T16:22:50;96951.19;;;11.51;49.42
60228;BME280;46091;46.512;6.626;2023-03-04T16:24:56;96954.03;;;11.50;49.70
60228;BME280;46091;46.512;6.626;2023-03-04T16:26:59;96960.34;;;11.49;49.80
60228;BME280;46091;46.512;6.626;2023-03-04T16:29:02;96952.41;;;11.49;49.70
60228;BME280;46091;46.512;6.626;2023-03-04T16:31:06;96965.84;;;11.47;49.49
60228;BME280;46091;46.512;6.626;2023-03-04T16:33:09;96966.84;;;11.46;49.46
60228;BME280;46091;46.512;6.626;2023-03-04T16:35:16;96952.00;;;11.45;49.44
60228;BME280;46091;46.512;6.626;2023-03-04T16:37:20;96960.94;;;11.44;49.74
60228;BME280;46091;46.512;6.626;2023-03-04T16:39:23;96953.00;;;11.44;49.63
60228;BME280;46091;46.512;6.626;2023-03-04T16:41:28;96951.19;;;11.45;49.65
60228;BME280;46091;46.512;6.626;2023-03-04T16:43:31;96952.81;;;11.52;49.37
60228;BME280;46091;46.512;6.626;2023-03-04T16:45:34;96961.59;;;11.53;49.19
60228;BME280;46091;46.512;6.626;2023-03-04T16:47:39;96952.81;;;11.52;49.50
60228;BME280;46091;46.512;6.626;2023-03-04T16:49:42;96959.75;;;11.53;49.46
60228;BME280;46091;46.512;6.626;2023-03-04T16:51:47;96953.66;;;11.53;49.41
60228;BME280;46091;46.512;6.626;2023-03-04T16:53:53;96957.09;;;11.53;49.48
60228;BME280;46091;46.512;6.626;2023-03-04T16:55:57;96961.22;;;11.56;49.42
60228;BME280;46091;46.512;6.626;2023-03-04T16:58:00;96957.16;;;11.60;49.29
60228;BME280;46091;46.512;6.626;2023-03-04T17:00:04;96961.66;;;11.66;49.15
60228;BME280;46091;46.512;6.626;2023-03-04T17:02:12;96954.16;;;11.70;48.53
60228;BME280;46091;46.512;6.626;2023-03-04T17:04:16;96953.34;;;11.76;48.56
60228;BME280;46091;46.512;6.626;2023-03-04T17:06:19;96955.63;;;11.79;48.51
60228;BME280;46091;46.512;6.626;2023-03-04T17:08:23;96960.94;;;11.79;48.59
60228;BME280;46091;46.512;6.626;2023-03-04T17:10:26;96956.63;;;11.78;48.35
60228;BME280;46091;46.512;6.626;2023-03-04T17:12:28;96954.81;;;11.78;48.09
60228;BME280;46091;46.512;6.626;2023-03-04T17:14:32;96964.22;;;11.81;48.25
60228;BME280;46091;46.512;6.626;2023-03-04T17:16:35;96963.22;;;11.82;47.95
60228;BME280;46091;46.512;6.626;2023-03-04T17:18:38;96969.31;;;11.82;48.00
60228;BME280;46091;46.512;6.626;2023-03-04T17:20:43;96967.28;;;11.84;47.79
60228;BME280;46091;46.512;6.626;2023-03-04T17:22:46;96962.00;;;11.84;47.72
60228;BME280;46091;46.512;6.626;2023-03-04T17:24:48;96965.47;;;11.85;47.64
60228;BME280;46091;46.512;6.626;2023-03-04T17:26:51;96965.25;;;11.86;47.98
60228;BME280;46091;46.512;6.626;2023-03-04T17:28:54;96963.81;;;11.84;47.65
60228;BME280;46091;46.512;6.626;2023-03-04T17:30:57;96964.84;;;11.83;47.90
60228;BME280;46091;46.512;6.626;2023-03-04T17:33:00;96970.13;;;11.83;47.63
60228;BME280;46091;46.512;6.626;2023-03-04T17:35:03;96970.97;;;11.83;47.69
60228;BME280;46091;46.512;6.626;2023-03-04T17:37:11;96972.19;;;11.81;47.80
60228;BME280;46091;46.512;6.626;2023-03-04T17:39:14;96975.03;;;11.79;47.43
60228;BME280;46091;46.512;6.626;2023-03-04T17:41:17;96971.34;;;11.80;47.76
60228;BME280;46091;46.512;6.626;2023-03-04T17:43:20;96981.13;;;11.80;47.43
60228;BME280;46091;46.512;6.626;2023-03-04T17:45:22;96980.31;;;11.79;47.61
60228;BME280;46091;46.512;6.626;2023-03-04T17:47:25;96974.19;;;11.79;47.39
60228;BME280;46091;46.512;6.626;2023-03-04T17:49:28;96983.09;;;11.78;47.26
60228;BME280;46091;46.512;6.626;2023-03-04T17:51:33;96980.47;;;11.78;47.15
60228;BME280;46091;46.512;6.626;2023-03-04T17:53:38;96983.09;;;11.78;47.33
60228;BME280;46091;46.512;6.626;2023-03-04T17:55:47;96976.19;;;11.77;47.19
60228;BME280;46091;46.512;6.626;2023-03-04T17:57:50;96975.38;;;11.76;47.23
60228;BME280;46091;46.512;6.626;2023-03-04T17:59:55;96971.28;;;11.74;47.26
60228;BME280;46091;46.512;6.626;2023-03-04T18:01:59;96971.69;;;11.71;46.82
60228;BME280;46091;46.512;6.626;2023-03-04T18:04:01;96978.19;;;11.68;46.98
60228;BME280;46091;46.512;6.626;2023-03-04T18:06:05;96968.78;;;11.65;46.67
60228;BME280;46091;46.512;6.626;2023-03-04T18:08:08;96973.25;;;11.65;46.89
60228;BME280;46091;46.512;6.626;2023-03-04T18:10:13;96969.19;;;11.62;46.73
60228;BME280;46091;46.512;6.626;2023-03-04T18:12:16;96969.19;;;11.62;46.79
60228;BME280;46091;46.512;6.626;2023-03-04T18:14:20;96969.19;;;11.62;46.58
60228;BME280;46091;46.512;6.626;2023-03-04T18:16:23;96968.56;;;11.60;46.79
60228;BME280;46091;46.512;6.626;2023-03-04T18:18:27;96971.41;;;11.59;46.74
60228;BME280;46091;46.512;6.626;2023-03-04T18:20:31;96961.38;;;11.54;46.31
60228;BME280;46091;46.512;6.626;2023-03-04T18:22:34;96967.69;;;11.53;46.38
60228;BME280;46091;46.512;6.626;2023-03-04T18:24:37;96966.06;;;11.52;46.64
60228;BME280;46091;46.512;6.626;2023-03-04T18:26:43;96960.16;;;11.50;46.64
60228;BME280;46091;46.512;6.626;2023-03-04T18:28:46;96965.66;;;11.49;46.68
60228;BME280;46091;46.512;6.626;2023-03-04T18:30:49;96965.84;;;11.47;46.20
60228;BME280;46091;46.512;6.626;2023-03-04T18:32:52;96966.03;;;11.46;46.44
60228;BME280;46091;46.512;6.626;2023-03-04T18:34:56;96961.75;;;11.45;46.23
60228;BME280;46091;46.512;6.626;2023-03-04T18:36:59;96966.25;;;11.44;46.47
60228;BME280;46091;46.512;6.626;2023-03-04T18:39:03;96967.22;;;11.43;46.51
60228;BME280;46091;46.512;6.626;2023-03-04T18:41:09;96960.09;;;11.44;46.42
60228;BME280;46091;46.512;6.626;2023-03-04T18:43:14;96958.66;;;11.41;45.99
60228;BME280;46091;46.512;6.626;2023-03-04T18:45:17;96961.72;;;11.38;46.03
60228;BME280;46091;46.512;6.626;2023-03-04T18:47:22;96960.69;;;11.39;45.92
60228;BME280;46091;46.512;6.626;2023-03-04T18:49:25;96961.72;;;11.38;46.09
60228;BME280;46091;46.512;6.626;2023-03-04T18:51:28;96965.38;;;11.37;45.98
60228;BME280;46091;46.512;6.626;2023-03-04T18:53:32;96963.75;;;11.36;45.86
60228;BME280;46091;46.512;6.626;2023-03-04T18:55:35;96958.84;;;11.33;46.19
60228;BME280;46091;46.512;6.626;2023-03-04T18:57:38;96964.13;;;11.33;46.08
60228;BME280;46091;46.512;6.626;2023-03-04T18:59:46;96966.94;;;11.31;45.98
60228;BME280;46091;46.512;6.626;2023-03-04T19:01:53;96960.22;;;11.29;46.13
60228;BME280;46091;46.512;6.626;2023-03-04T19:03:56;96958.59;;;11.28;46.10
60228;BME280;46091;46.512;6.626;2023-03-04T19:06:04;96961.22;;;11.28;45.93
60228;BME280;46091;46.512;6.626;2023-03-04T19:08:08;96957.97;;;11.26;46.04
60228;BME280;46091;46.512;6.626;2023-03-04T19:10:11;96964.28;;;11.25;45.99
60228;BME280;46091;46.512;6.626;2023-03-04T19:12:14;96960.00;;;11.24;45.85